sensor_id;sensor_type;location;lat;lon;timestamp;pressure;altitude;pressure_sealevel;temperature
50496;BMP280;38806;51.554;5.704;2022-09-09T00:24:11;100066.50;;;12.67
50496;BMP280;38806;51.554;5.704;2022-09-09T00:29:47;100067.97;;;12.68
50496;BMP280;38806;51.554;5.704;2022-09-09T00:37:53;100175.66;;;12.12
50496;BMP280;38806;51.554;5.704;2022-09-09T00:50:57;100139.03;;;12.22
50496;BMP280;38806;51.554;5.704;2022-09-09T01:16:28;99995.56;;;12.54
50496;BMP280;38806;51.554;5.704;2022-09-09T01:18:37;99939.13;;;12.75
50496;BMP280;38806;51.554;5.704;2022-09-09T01:29:37;99925.78;;;12.82
50496;BMP280;38806;51.554;5.704;2022-09-09T01:31:51;99924.00;;;12.85
50496;BMP280;38806;51.554;5.704;2022-09-09T01:40:37;99841.31;;;13.14
50496;BMP280;38806;51.554;5.704;2022-09-09T01:49:05;99853.59;;;13.15
50496;BMP280;38806;51.554;5.704;2022-09-09T01:53:54;99915.53;;;12.94
50496;BMP280;38806;51.554;5.704;2022-09-09T01:58:26;99998.63;;;12.63
50496;BMP280;38806;51.554;5.704;2022-09-09T02:04:28;99936.34;;;12.80
50496;BMP280;38806;51.554;5.704;2022-09-09T02:30:11;99800.31;;;13.28
50496;BMP280;38806;51.554;5.704;2022-09-09T02:32:15;99879.41;;;12.97
50496;BMP280;38806;51.554;5.704;2022-09-09T02:34:37;99928.75;;;12.79
50496;BMP280;38806;51.554;5.704;2022-09-09T02:36:46;99919.19;;;12.78
50496;BMP280;38806;51.554;5.704;2022-09-09T03:54:38;99674.63;;;13.95
50496;BMP280;38806;51.554;5.704;2022-09-09T04:06:21;99632.22;;;14.19
50496;BMP280;38806;51.554;5.704;2022-09-09T04:08:54;99634.03;;;14.16
50496;BMP280;38806;51.554;5.704;2022-09-09T04:10:55;99632.97;;;14.19
50496;BMP280;38806;51.554;5.704;2022-09-09T04:18:46;99605.66;;;14.30
50496;BMP280;38806;51.554;5.704;2022-09-09T04:23:51;99571.81;;;14.45
50496;BMP280;38806;51.554;5.704;2022-09-09T04:25:53;99582.81;;;14.39
50496;BMP280;38806;51.554;5.704;2022-09-09T04:27:57;99601.16;;;14.33
50496;BMP280;38806;51.554;5.704;2022-09-09T04:29:58;99603.31;;;14.34
50496;BMP280;38806;51.554;5.704;2022-09-09T04:31:58;99609.06;;;14.31
50496;BMP280;38806;51.554;5.704;2022-09-09T04:33:59;99591.25;;;14.35
50496;BMP280;38806;51.554;5.704;2022-09-09T04:36:05;99565.53;;;14.50
50496;BMP280;38806;51.554;5.704;2022-09-09T04:38:06;99578.66;;;14.46
50496;BMP280;38806;51.554;5.704;2022-09-09T04:40:09;99580.47;;;14.43
50496;BMP280;38806;51.554;5.704;2022-09-09T04:42:09;99603.72;;;14.38
50496;BMP280;38806;51.554;5.704;2022-09-09T04:44:10;99578.47;;;14.44
50496;BMP280;38806;51.554;5.704;2022-09-09T04:46:10;99582.84;;;14.47
50496;BMP280;38806;51.554;5.704;2022-09-09T04:48:10;99572.75;;;14.47
50496;BMP280;38806;51.554;5.704;2022-09-09T04:50:11;99573.97;;;14.46
50496;BMP280;38806;51.554;5.704;2022-09-09T04:52:12;99589.28;;;14.44
50496;BMP280;38806;51.554;5.704;2022-09-09T04:54:12;99559.22;;;14.55
50496;BMP280;38806;51.554;5.704;2022-09-09T04:56:16;99528.59;;;14.60
50496;BMP280;38806;51.554;5.704;2022-09-09T04:58:17;99542.47;;;14.56
50496;BMP280;38806;51.554;5.704;2022-09-09T05:00:17;99556.50;;;14.55
50496;BMP280;38806;51.554;5.704;2022-09-09T05:02:18;99551.31;;;14.57
50496;BMP280;38806;51.554;5.704;2022-09-09T05:04:19;99570.78;;;14.55
50496;BMP280;38806;51.554;5.704;2022-09-09T05:06:21;99597.41;;;14.44
50496;BMP280;38806;51.554;5.704;2022-09-09T05:08:22;99617.97;;;14.39
50496;BMP280;38806;51.554;5.704;2022-09-09T05:10:22;99589.00;;;14.47
50496;BMP280;38806;51.554;5.704;2022-09-09T05:12:23;99617.44;;;14.40
50496;BMP280;38806;51.554;5.704;2022-09-09T05:14:25;99615.03;;;14.37
50496;BMP280;38806;51.554;5.704;2022-09-09T05:16:26;99610.56;;;14.39
50496;BMP280;38806;51.554;5.704;2022-09-09T05:18:27;99617.25;;;14.38
50496;BMP280;38806;51.554;5.704;2022-09-09T05:20:27;99579.25;;;14.52
50496;BMP280;38806;51.554;5.704;2022-09-09T05:22:28;99588.09;;;14.52
50496;BMP280;38806;51.554;5.704;2022-09-09T05:24:28;99565.75;;;14.59
50496;BMP280;38806;51.554;5.704;2022-09-09T05:26:29;99554.06;;;14.64
50496;BMP280;38806;51.554;5.704;2022-09-09T05:28:29;99565.63;;;14.65
50496;BMP280;38806;51.554;5.704;2022-09-09T05:30:30;99577.47;;;14.62
50496;BMP280;38806;51.554;5.704;2022-09-09T05:32:30;99576.03;;;14.61
50496;BMP280;38806;51.554;5.704;2022-09-09T05:34:34;99567.59;;;14.64
50496;BMP280;38806;51.554;5.704;2022-09-09T05:36:34;99588.66;;;14.58
50496;BMP280;38806;51.554;5.704;2022-09-09T05:38:35;99609.53;;;14.50
50496;BMP280;38806;51.554;5.704;2022-09-09T05:40:35;99592.44;;;14.55
50496;BMP280;38806;51.554;5.704;2022-09-09T05:42:36;99631.13;;;14.43
50496;BMP280;38806;51.554;5.704;2022-09-09T05:44:36;99627.16;;;14.44
50496;BMP280;38806;51.554;5.704;2022-09-09T05:46:37;99618.19;;;14.49
50496;BMP280;38806;51.554;5.704;2022-09-09T05:48:39;99608.28;;;14.51
50496;BMP280;38806;51.554;5.704;2022-09-09T05:50:40;99627.34;;;14.46
50496;BMP280;38806;51.554;5.704;2022-09-09T05:52:41;99641.41;;;14.44
50496;BMP280;38806;51.554;5.704;2022-09-09T05:54:41;99624.16;;;14.47
50496;BMP280;38806;51.554;5.704;2022-09-09T05:56:42;99624.16;;;14.55
50496;BMP280;38806;51.554;5.704;2022-09-09T05:58:43;99605.97;;;14.63
50496;BMP280;38806;51.554;5.704;2022-09-09T06:00:44;99588.00;;;14.73
50496;BMP280;38806;51.554;5.704;2022-09-09T06:02:50;99588.72;;;14.73
50496;BMP280;38806;51.554;5.704;2022-09-09T06:04:51;99588.38;;;14.77
50496;BMP280;38806;51.554;5.704;2022-09-09T06:06:51;99593.78;;;14.77
50496;BMP280;38806;51.554;5.704;2022-09-09T06:08:53;99566.91;;;14.87
50496;BMP280;38806;51.554;5.704;2022-09-09T06:11:01;99592.91;;;14.82
50496;BMP280;38806;51.554;5.704;2022-09-09T06:13:02;99557.38;;;14.93
50496;BMP280;38806;51.554;5.704;2022-09-09T06:15:03;99594.53;;;14.85
50496;BMP280;38806;51.554;5.704;2022-09-09T06:17:04;99571.47;;;14.92
50496;BMP280;38806;51.554;5.704;2022-09-09T06:19:05;99586.78;;;14.89
50496;BMP280;38806;51.554;5.704;2022-09-09T06:21:09;99561.38;;;15.00
50496;BMP280;38806;51.554;5.704;2022-09-09T06:23:11;99568.94;;;15.01
50496;BMP280;38806;51.554;5.704;2022-09-09T06:25:12;99566.59;;;15.05
50496;BMP280;38806;51.554;5.704;2022-09-09T06:27:12;99541.88;;;15.17
50496;BMP280;38806;51.554;5.704;2022-09-09T06:29:13;99567.53;;;15.08
50496;BMP280;38806;51.554;5.704;2022-09-09T06:31:17;99576.88;;;15.07
50496;BMP280;38806;51.554;5.704;2022-09-09T06:33:21;99572.03;;;15.13
50496;BMP280;38806;51.554;5.704;2022-09-09T06:35:21;99555.25;;;15.22
50496;BMP280;38806;51.554;5.704;2022-09-09T06:37:21;99548.41;;;15.21
50496;BMP280;38806;51.554;5.704;2022-09-09T06:39:24;99551.66;;;15.27
50496;BMP280;38806;51.554;5.704;2022-09-09T06:41:26;99566.63;;;15.21
50496;BMP280;38806;51.554;5.704;2022-09-09T06:43:27;99565.00;;;15.25
50496;BMP280;38806;51.554;5.704;2022-09-09T06:45:27;99573.13;;;15.25
50496;BMP280;38806;51.554;5.704;2022-09-09T06:47:28;99576.91;;;15.30
50496;BMP280;38806;51.554;5.704;2022-09-09T06:49:30;99574.59;;;15.34
50496;BMP280;38806;51.554;5.704;2022-09-09T06:51:31;99580.19;;;15.36
50496;BMP280;38806;51.554;5.704;2022-09-09T06:53:37;99570.09;;;15.44
50496;BMP280;38806;51.554;5.704;2022-09-09T06:55:38;99581.28;;;15.48
50496;BMP280;38806;51.554;5.704;2022-09-09T06:57:40;99582.72;;;15.49
50496;BMP280;38806;51.554;5.704;2022-09-09T06:59:40;99610.00;;;15.43
50496;BMP280;38806;51.554;5.704;2022-09-09T07:01:44;99616.16;;;15.44
50496;BMP280;38806;51.554;5.704;2022-09-09T07:03:47;99612.53;;;15.49
50496;BMP280;38806;51.554;5.704;2022-09-09T07:05:55;99610.72;;;15.52
50496;BMP280;38806;51.554;5.704;2022-09-09T07:07:59;99608.22;;;15.61
50496;BMP280;38806;51.554;5.704;2022-09-09T07:09:59;99633.66;;;15.58
50496;BMP280;38806;51.554;5.704;2022-09-09T07:11:59;99630.78;;;15.64
50496;BMP280;38806;51.554;5.704;2022-09-09T07:14:00;99603.50;;;15.77
50496;BMP280;38806;51.554;5.704;2022-09-09T07:16:10;99618.50;;;15.78
50496;BMP280;38806;51.554;5.704;2022-09-09T07:18:10;99643.44;;;15.76
50496;BMP280;38806;51.554;5.704;2022-09-09T07:20:11;99618.47;;;15.93
50496;BMP280;38806;51.554;5.704;2022-09-09T07:22:12;99637.63;;;15.95
50496;BMP280;38806;51.554;5.704;2022-09-09T07:24:12;99631.66;;;16.04
50496;BMP280;38806;51.554;5.704;2022-09-09T07:26:15;99695.31;;;15.96
50496;BMP280;38806;51.554;5.704;2022-09-09T07:28:16;99700.56;;;16.09
50496;BMP280;38806;51.554;5.704;2022-09-09T07:30:16;99503.94;;;16.25
50496;BMP280;38806;51.554;5.704;2022-09-09T07:32:18;99356.13;;;16.34
50496;BMP280;38806;51.554;5.704;2022-09-09T07:34:19;99485.59;;;16.41
50496;BMP280;38806;51.554;5.704;2022-09-09T07:36:25;99527.00;;;16.49
50496;BMP280;38806;51.554;5.704;2022-09-09T07:38:25;99510.28;;;16.60
50496;BMP280;38806;51.554;5.704;2022-09-09T07:40:26;99716.22;;;16.56
50496;BMP280;38806;51.554;5.704;2022-09-09T07:42:26;99790.94;;;16.65
50496;BMP280;38806;51.554;5.704;2022-09-09T07:44:27;99871.81;;;16.81
50496;BMP280;38806;51.554;5.704;2022-09-09T07:46:27;99927.19;;;17.01
50496;BMP280;38806;51.554;5.704;2022-09-09T07:48:28;100016.47;;;17.27
50496;BMP280;38806;51.554;5.704;2022-09-09T07:50:29;100103.84;;;17.54
50496;BMP280;38806;51.554;5.704;2022-09-09T07:52:29;100116.50;;;17.90
50496;BMP280;38806;51.554;5.704;2022-09-09T07:54:29;100274.66;;;17.94
50496;BMP280;38806;51.554;5.704;2022-09-09T07:56:31;100426.25;;;17.86
50496;BMP280;38806;51.554;5.704;2022-09-09T07:58:31;100468.34;;;17.85
50496;BMP280;38806;51.554;5.704;2022-09-09T08:00:31;100570.81;;;17.82
50496;BMP280;38806;51.554;5.704;2022-09-09T08:02:33;100566.69;;;17.96
50496;BMP280;38806;51.554;5.704;2022-09-09T08:04:33;100645.72;;;17.83
50496;BMP280;38806;51.554;5.704;2022-09-09T08:06:38;100608.47;;;17.99
50496;BMP280;38806;51.554;5.704;2022-09-09T08:08:39;100684.34;;;17.82
50496;BMP280;38806;51.554;5.704;2022-09-09T08:10:42;100652.72;;;17.99
50496;BMP280;38806;51.554;5.704;2022-09-09T08:12:42;100743.44;;;18.02
50496;BMP280;38806;51.554;5.704;2022-09-09T08:14:42;100788.88;;;18.15
50496;BMP280;38806;51.554;5.704;2022-09-09T08:16:46;100819.94;;;18.40
50496;BMP280;38806;51.554;5.704;2022-09-09T08:18:47;100777.38;;;18.58
50496;BMP280;38806;51.554;5.704;2022-09-09T08:20:47;100943.69;;;18.52
50496;BMP280;38806;51.554;5.704;2022-09-09T08:22:47;100959.50;;;18.54
50496;BMP280;38806;51.554;5.704;2022-09-09T08:24:49;100884.09;;;18.69
50496;BMP280;38806;51.554;5.704;2022-09-09T08:26:50;100943.22;;;18.82
50496;BMP280;38806;51.554;5.704;2022-09-09T08:28:52;101001.94;;;18.91
50496;BMP280;38806;51.554;5.704;2022-09-09T08:30:53;100957.75;;;18.85
50496;BMP280;38806;51.554;5.704;2022-09-09T08:32:54;101013.84;;;18.80
50496;BMP280;38806;51.554;5.704;2022-09-09T08:34:54;101042.53;;;18.73
50496;BMP280;38806;51.554;5.704;2022-09-09T08:36:55;100943.84;;;18.96
50496;BMP280;38806;51.554;5.704;2022-09-09T08:38:57;101089.84;;;18.50
50496;BMP280;38806;51.554;5.704;2022-09-09T08:41:04;101020.72;;;18.73
50496;BMP280;38806;51.554;5.704;2022-09-09T08:43:07;101110.06;;;18.54
50496;BMP280;38806;51.554;5.704;2022-09-09T08:45:32;101095.72;;;18.74
50496;BMP280;38806;51.554;5.704;2022-09-09T08:52:17;101088.72;;;18.79
50496;BMP280;38806;51.554;5.704;2022-09-09T08:54:19;101046.25;;;18.84
50496;BMP280;38806;51.554;5.704;2022-09-09T08:56:22;101040.00;;;18.96
50496;BMP280;38806;51.554;5.704;2022-09-09T08:58:32;101148.06;;;18.94
50496;BMP280;38806;51.554;5.704;2022-09-09T09:01:02;101040.06;;;19.32
50496;BMP280;38806;51.554;5.704;2022-09-09T09:05:13;101228.31;;;18.85
50496;BMP280;38806;51.554;5.704;2022-09-09T09:12:00;101110.19;;;19.03
50496;BMP280;38806;51.554;5.704;2022-09-09T09:14:10;101185.09;;;18.89
50496;BMP280;38806;51.554;5.704;2022-09-09T09:18:41;101201.19;;;18.66
50496;BMP280;38806;51.554;5.704;2022-09-09T09:20:50;101196.50;;;18.54
50496;BMP280;38806;51.554;5.704;2022-09-09T09:22:52;101253.28;;;18.23
50496;BMP280;38806;51.554;5.704;2022-09-09T09:27:16;101109.88;;;18.39
50496;BMP280;38806;51.554;5.704;2022-09-09T09:29:19;101174.22;;;18.16
50496;BMP280;38806;51.554;5.704;2022-09-09T09:31:21;101139.94;;;18.33
50496;BMP280;38806;51.554;5.704;2022-09-09T09:33:34;101074.66;;;18.75
50496;BMP280;38806;51.554;5.704;2022-09-09T09:35:38;101154.06;;;18.92
50496;BMP280;38806;51.554;5.704;2022-09-09T09:37:40;101160.88;;;18.86
50496;BMP280;38806;51.554;5.704;2022-09-09T09:39:40;101238.06;;;18.67
50496;BMP280;38806;51.554;5.704;2022-09-09T09:41:42;101252.22;;;18.66
50496;BMP280;38806;51.554;5.704;2022-09-09T09:43:53;101197.28;;;18.75
50496;BMP280;38806;51.554;5.704;2022-09-09T09:45:54;101212.63;;;18.65
50496;BMP280;38806;51.554;5.704;2022-09-09T09:48:03;101256.25;;;18.65
50496;BMP280;38806;51.554;5.704;2022-09-09T09:50:04;101232.97;;;18.64
50496;BMP280;38806;51.554;5.704;2022-09-09T09:52:06;101223.97;;;18.56
50496;BMP280;38806;51.554;5.704;2022-09-09T09:54:17;101234.03;;;18.34
50496;BMP280;38806;51.554;5.704;2022-09-09T09:56:26;101239.38;;;18.40
50496;BMP280;38806;51.554;5.704;2022-09-09T09:58:30;101228.56;;;18.48
50496;BMP280;38806;51.554;5.704;2022-09-09T10:00:32;101211.47;;;18.47
50496;BMP280;38806;51.554;5.704;2022-09-09T10:02:39;101245.66;;;18.35
50496;BMP280;38806;51.554;5.704;2022-09-09T10:04:43;101191.06;;;18.54
50496;BMP280;38806;51.554;5.704;2022-09-09T10:06:45;101214.72;;;18.72
50496;BMP280;38806;51.554;5.704;2022-09-09T10:08:46;101243.09;;;18.90
50496;BMP280;38806;51.554;5.704;2022-09-09T10:11:05;101286.84;;;19.18
50496;BMP280;38806;51.554;5.704;2022-09-09T10:15:35;101258.91;;;19.59
50496;BMP280;38806;51.554;5.704;2022-09-09T10:17:54;101201.28;;;19.70
50496;BMP280;38806;51.554;5.704;2022-09-09T10:22:28;101146.03;;;19.07
50496;BMP280;38806;51.554;5.704;2022-09-09T10:29:51;100973.81;;;18.13
50496;BMP280;38806;51.554;5.704;2022-09-09T10:32:26;101082.72;;;17.99
50496;BMP280;38806;51.554;5.704;2022-09-09T10:36:32;100911.00;;;18.11
50496;BMP280;38806;51.554;5.704;2022-09-09T10:38:36;100881.06;;;18.11
50496;BMP280;38806;51.554;5.704;2022-09-09T10:42:42;100905.94;;;17.94
50496;BMP280;38806;51.554;5.704;2022-09-09T10:52:14;100586.84;;;17.44
50496;BMP280;38806;51.554;5.704;2022-09-09T10:54:08;100618.53;;;17.00
50496;BMP280;38806;51.554;5.704;2022-09-09T10:56:13;100591.28;;;16.93
50496;BMP280;38806;51.554;5.704;2022-09-09T10:59:02;100498.53;;;16.68
50496;BMP280;38806;51.554;5.704;2022-09-09T11:01:19;100343.69;;;16.60
50496;BMP280;38806;51.554;5.704;2022-09-09T11:03:28;100328.09;;;16.32
50496;BMP280;38806;51.554;5.704;2022-09-09T11:05:42;100208.75;;;16.47
50496;BMP280;38806;51.554;5.704;2022-09-09T11:10:17;100091.78;;;16.81
50496;BMP280;38806;51.554;5.704;2022-09-09T11:12:19;100054.38;;;16.95
50496;BMP280;38806;51.554;5.704;2022-09-09T11:14:42;100026.66;;;17.12
50496;BMP280;38806;51.554;5.704;2022-09-09T11:16:50;100052.38;;;17.18
50496;BMP280;38806;51.554;5.704;2022-09-09T11:18:58;99982.94;;;17.55
50496;BMP280;38806;51.554;5.704;2022-09-09T11:21:02;99996.47;;;17.71
50496;BMP280;38806;51.554;5.704;2022-09-09T11:23:13;100097.66;;;17.54
50496;BMP280;38806;51.554;5.704;2022-09-09T11:25:18;100103.09;;;17.61
50496;BMP280;38806;51.554;5.704;2022-09-09T11:27:29;100060.44;;;17.87
50496;BMP280;38806;51.554;5.704;2022-09-09T11:29:40;100060.59;;;17.96
50496;BMP280;38806;51.554;5.704;2022-09-09T11:32:00;100024.66;;;18.38
50496;BMP280;38806;51.554;5.704;2022-09-09T11:40:32;99844.81;;;20.58
50496;BMP280;38806;51.554;5.704;2022-09-09T11:42:32;99936.44;;;20.88
50496;BMP280;38806;51.554;5.704;2022-09-09T11:44:33;100109.66;;;20.83
50496;BMP280;38806;51.554;5.704;2022-09-09T11:46:36;100239.69;;;21.13
50496;BMP280;38806;51.554;5.704;2022-09-09T11:48:39;100100.84;;;21.98
50496;BMP280;38806;51.554;5.704;2022-09-09T11:50:43;100196.44;;;22.04
50496;BMP280;38806;51.554;5.704;2022-09-09T11:52:45;100436.97;;;21.71
50496;BMP280;38806;51.554;5.704;2022-09-09T11:54:48;100659.34;;;21.45
50496;BMP280;38806;51.554;5.704;2022-09-09T11:56:49;100797.97;;;20.70
50496;BMP280;38806;51.554;5.704;2022-09-09T11:59:16;100805.03;;;20.25
50496;BMP280;38806;51.554;5.704;2022-09-09T12:05:44;100751.84;;;19.20
50496;BMP280;38806;51.554;5.704;2022-09-09T12:07:52;100620.03;;;19.55
50496;BMP280;38806;51.554;5.704;2022-09-09T12:10:02;100672.78;;;19.35
50496;BMP280;38806;51.554;5.704;2022-09-09T12:19:19;100504.72;;;19.62
50496;BMP280;38806;51.554;5.704;2022-09-09T12:24:13;100734.75;;;19.27
50496;BMP280;38806;51.554;5.704;2022-09-09T12:26:18;100684.78;;;19.77
50496;BMP280;38806;51.554;5.704;2022-09-09T12:31:14;100525.75;;;20.74
50496;BMP280;38806;51.554;5.704;2022-09-09T12:33:18;100627.03;;;21.01
50496;BMP280;38806;51.554;5.704;2022-09-09T12:35:22;100694.28;;;21.04
50496;BMP280;38806;51.554;5.704;2022-09-09T12:37:50;100750.00;;;20.84
50496;BMP280;38806;51.554;5.704;2022-09-09T12:39:57;100791.09;;;21.01
50496;BMP280;38806;51.554;5.704;2022-09-09T12:41:59;100793.88;;;21.26
50496;BMP280;38806;51.554;5.704;2022-09-09T12:44:08;100976.75;;;20.67
50496;BMP280;38806;51.554;5.704;2022-09-09T12:46:16;100925.69;;;20.77
50496;BMP280;38806;51.554;5.704;2022-09-09T12:48:19;100912.19;;;20.94
50496;BMP280;38806;51.554;5.704;2022-09-09T12:50:22;100834.53;;;21.29
50496;BMP280;38806;51.554;5.704;2022-09-09T12:52:30;101020.50;;;20.74
50496;BMP280;38806;51.554;5.704;2022-09-09T12:54:34;100786.31;;;21.17
50496;BMP280;38806;51.554;5.704;2022-09-09T12:56:35;100851.34;;;21.26
50496;BMP280;38806;51.554;5.704;2022-09-09T12:58:37;100906.38;;;20.90
50496;BMP280;38806;51.554;5.704;2022-09-09T13:00:48;100943.22;;;20.58
50496;BMP280;38806;51.554;5.704;2022-09-09T13:02:53;101061.31;;;19.98
50496;BMP280;38806;51.554;5.704;2022-09-09T13:04:54;101057.28;;;19.92
50496;BMP280;38806;51.554;5.704;2022-09-09T13:07:06;100987.97;;;19.95
50496;BMP280;38806;51.554;5.704;2022-09-09T13:09:08;100845.25;;;20.40
50496;BMP280;38806;51.554;5.704;2022-09-09T13:11:20;100958.69;;;20.25
50496;BMP280;38806;51.554;5.704;2022-09-09T13:13:27;101030.31;;;19.80
50496;BMP280;38806;51.554;5.704;2022-09-09T13:15:30;100925.63;;;19.70
50496;BMP280;38806;51.554;5.704;2022-09-09T13:17:30;100969.50;;;19.29
50496;BMP280;38806;51.554;5.704;2022-09-09T13:19:35;100860.56;;;19.16
50496;BMP280;38806;51.554;5.704;2022-09-09T13:21:37;100794.53;;;19.17
50496;BMP280;38806;51.554;5.704;2022-09-09T13:23:38;100842.84;;;19.01
50496;BMP280;38806;51.554;5.704;2022-09-09T13:25:39;100865.41;;;18.73
50496;BMP280;38806;51.554;5.704;2022-09-09T13:27:41;100693.38;;;18.69
50496;BMP280;38806;51.554;5.704;2022-09-09T13:29:52;100562.44;;;18.83
50496;BMP280;38806;51.554;5.704;2022-09-09T13:32:12;100534.63;;;19.07
50496;BMP280;38806;51.554;5.704;2022-09-09T13:34:13;100496.38;;;19.53
50496;BMP280;38806;51.554;5.704;2022-09-09T13:36:14;100498.00;;;19.96
50496;BMP280;38806;51.554;5.704;2022-09-09T13:38:15;100582.94;;;20.15
50496;BMP280;38806;51.554;5.704;2022-09-09T13:40:21;100766.63;;;20.00
50496;BMP280;38806;51.554;5.704;2022-09-09T13:42:25;100777.38;;;20.06
50496;BMP280;38806;51.554;5.704;2022-09-09T13:44:29;100858.91;;;20.17
50496;BMP280;38806;51.554;5.704;2022-09-09T13:46:38;100818.88;;;20.90
50496;BMP280;38806;51.554;5.704;2022-09-09T13:48:40;100894.59;;;21.20
50496;BMP280;38806;51.554;5.704;2022-09-09T13:50:41;101115.44;;;20.81
50496;BMP280;38806;51.554;5.704;2022-09-09T13:52:41;101066.22;;;20.74
50496;BMP280;38806;51.554;5.704;2022-09-09T13:54:42;101219.91;;;20.36
50496;BMP280;38806;51.554;5.704;2022-09-09T13:56:43;101111.38;;;20.59
50496;BMP280;38806;51.554;5.704;2022-09-09T13:58:44;101097.88;;;20.39
50496;BMP280;38806;51.554;5.704;2022-09-09T14:00:45;101053.75;;;20.35
50496;BMP280;38806;51.554;5.704;2022-09-09T14:02:46;101056.84;;;20.23
50496;BMP280;38806;51.554;5.704;2022-09-09T14:04:47;101012.31;;;19.21
50496;BMP280;38806;51.554;5.704;2022-09-09T14:06:50;100524.78;;;18.66
50496;BMP280;38806;51.554;5.704;2022-09-09T14:08:51;100329.38;;;18.66
50496;BMP280;38806;51.554;5.704;2022-09-09T14:10:51;100358.94;;;17.79
50496;BMP280;38806;51.554;5.704;2022-09-09T14:12:52;100169.09;;;17.77
50496;BMP280;38806;51.554;5.704;2022-09-09T14:14:53;100006.31;;;18.06
50496;BMP280;38806;51.554;5.704;2022-09-09T14:16:53;99647.50;;;19.35
50496;BMP280;38806;51.554;5.704;2022-09-09T14:18:53;99467.66;;;20.35
50496;BMP280;38806;51.554;5.704;2022-09-09T14:20:56;99491.94;;;21.14
50496;BMP280;38806;51.554;5.704;2022-09-09T14:22:58;99748.69;;;21.93
50496;BMP280;38806;51.554;5.704;2022-09-09T14:24:59;100225.22;;;21.30
50496;BMP280;38806;51.554;5.704;2022-09-09T14:26:59;100390.38;;;20.73
50496;BMP280;38806;51.554;5.704;2022-09-09T14:28:59;100395.91;;;20.66
50496;BMP280;38806;51.554;5.704;2022-09-09T14:31:03;100421.50;;;20.53
50496;BMP280;38806;51.554;5.704;2022-09-09T14:33:05;100353.38;;;20.55
50496;BMP280;38806;51.554;5.704;2022-09-09T14:35:05;100523.41;;;20.13
50496;BMP280;38806;51.554;5.704;2022-09-09T14:37:07;100505.59;;;20.05
50496;BMP280;38806;51.554;5.704;2022-09-09T14:39:07;100428.41;;;20.12
50496;BMP280;38806;51.554;5.704;2022-09-09T14:41:13;100464.91;;;19.52
50496;BMP280;38806;51.554;5.704;2022-09-09T14:43:14;100432.50;;;19.16
50496;BMP280;38806;51.554;5.704;2022-09-09T14:45:15;100298.41;;;18.01
50496;BMP280;38806;51.554;5.704;2022-09-09T14:47:15;100064.16;;;18.14
50496;BMP280;38806;51.554;5.704;2022-09-09T14:49:15;99927.28;;;18.29
50496;BMP280;38806;51.554;5.704;2022-09-09T14:51:18;99875.00;;;18.30
50496;BMP280;38806;51.554;5.704;2022-09-09T14:53:19;99812.09;;;18.44
50496;BMP280;38806;51.554;5.704;2022-09-09T14:55:19;99819.22;;;18.39
50496;BMP280;38806;51.554;5.704;2022-09-09T14:57:21;99821.06;;;18.37
50496;BMP280;38806;51.554;5.704;2022-09-09T14:59:21;99767.09;;;18.60
50496;BMP280;38806;51.554;5.704;2022-09-09T15:01:23;99788.09;;;18.50
50496;BMP280;38806;51.554;5.704;2022-09-09T15:03:23;99705.06;;;18.85
50496;BMP280;38806;51.554;5.704;2022-09-09T15:05:23;99751.06;;;18.81
50496;BMP280;38806;51.554;5.704;2022-09-09T15:07:25;99678.41;;;19.20
50496;BMP280;38806;51.554;5.704;2022-09-09T15:09:25;99695.59;;;19.40
50496;BMP280;38806;51.554;5.704;2022-09-09T15:11:28;99679.19;;;19.67
50496;BMP280;38806;51.554;5.704;2022-09-09T15:13:30;99771.44;;;19.61
50496;BMP280;38806;51.554;5.704;2022-09-09T15:15:30;99810.09;;;19.67
50496;BMP280;38806;51.554;5.704;2022-09-09T15:17:31;99897.06;;;19.63
50496;BMP280;38806;51.554;5.704;2022-09-09T15:19:31;99898.72;;;20.02
50496;BMP280;38806;51.554;5.704;2022-09-09T15:21:35;100048.63;;;20.44
50496;BMP280;38806;51.554;5.704;2022-09-09T15:23:36;100294.84;;;20.92
50496;BMP280;38806;51.554;5.704;2022-09-09T15:25:36;100569.50;;;21.33
50496;BMP280;38806;51.554;5.704;2022-09-09T15:27:36;100681.59;;;21.41
50496;BMP280;38806;51.554;5.704;2022-09-09T15:29:39;100817.59;;;20.91
50496;BMP280;38806;51.554;5.704;2022-09-09T15:31:39;100934.66;;;20.62
50496;BMP280;38806;51.554;5.704;2022-09-09T15:33:40;100949.44;;;20.36
50496;BMP280;38806;51.554;5.704;2022-09-09T15:35:40;100959.22;;;20.09
50496;BMP280;38806;51.554;5.704;2022-09-09T15:37:40;100985.03;;;19.85
50496;BMP280;38806;51.554;5.704;2022-09-09T15:39:40;100916.91;;;19.72
50496;BMP280;38806;51.554;5.704;2022-09-09T15:41:42;100860.13;;;19.63
50496;BMP280;38806;51.554;5.704;2022-09-09T15:43:47;100832.78;;;19.47
50496;BMP280;38806;51.554;5.704;2022-09-09T15:46:00;100886.88;;;19.21
50496;BMP280;38806;51.554;5.704;2022-09-09T15:48:05;100892.97;;;19.34
50496;BMP280;38806;51.554;5.704;2022-09-09T15:50:05;101070.78;;;19.04
50496;BMP280;38806;51.554;5.704;2022-09-09T15:52:06;101556.56;;;17.58
50496;BMP280;38806;51.554;5.704;2022-09-09T15:54:06;100613.75;;;16.46
50496;BMP280;38806;51.554;5.704;2022-09-09T15:56:07;100317.63;;;15.61
50496;BMP280;38806;51.554;5.704;2022-09-09T15:58:07;100193.50;;;15.46
50496;BMP280;38806;51.554;5.704;2022-09-09T16:00:08;100132.34;;;15.37
50496;BMP280;38806;51.554;5.704;2022-09-09T16:02:09;100047.09;;;15.38
50496;BMP280;38806;51.554;5.704;2022-09-09T16:04:09;99834.19;;;15.15
50496;BMP280;38806;51.554;5.704;2022-09-09T16:06:09;99796.91;;;15.28
50496;BMP280;38806;51.554;5.704;2022-09-09T16:08:10;99804.56;;;15.45
50496;BMP280;38806;51.554;5.704;2022-09-09T16:10:10;99819.28;;;15.72
50496;BMP280;38806;51.554;5.704;2022-09-09T16:12:11;99851.09;;;15.87
50496;BMP280;38806;51.554;5.704;2022-09-09T16:14:14;99870.31;;;15.89
50496;BMP280;38806;51.554;5.704;2022-09-09T16:16:17;99876.13;;;16.01
50496;BMP280;38806;51.554;5.704;2022-09-09T16:18:19;99908.13;;;16.10
50496;BMP280;38806;51.554;5.704;2022-09-09T16:20:20;99904.66;;;16.02
50496;BMP280;38806;51.554;5.704;2022-09-09T16:22:20;99903.59;;;15.97
50496;BMP280;38806;51.554;5.704;2022-09-09T16:24:21;99913.91;;;15.99
50496;BMP280;38806;51.554;5.704;2022-09-09T16:26:22;99898.69;;;15.88